sensor_id;sensor_type;location;lat;lon;timestamp;pressure;altitude;pressure_sealevel;temperature;humidity
49072;BME280;52656;52.610;10.236;2023-05-25T00:01:28;102014.69;;;8.85;80.10
49072;BME280;52656;52.610;10.236;2023-05-25T00:03:54;102021.81;;;8.81;80.15
49072;BME280;52656;52.610;10.236;2023-05-25T00:06:20;102018.31;;;8.76;80.05
49072;BME280;52656;52.610;10.236;2023-05-25T00:08:46;102017.50;;;8.73;79.97
49072;BME280;52656;52.610;10.236;2023-05-25T00:11:13;102018.47;;;8.64;79.93
49072;BME280;52656;52.610;10.236;2023-05-25T00:13:38;102021.22;;;8.53;81.05
49072;BME280;52656;52.610;10.236;2023-05-25T00:16:04;102018.59;;;8.52;80.26
49072;BME280;52656;52.610;10.236;2023-05-25T00:18:31;102021.31;;;8.46;80.80
49072;BME280;52656;52.610;10.236;2023-05-25T00:20:57;102023.97;;;8.43;80.72
49072;BME280;52656;52.610;10.236;2023-05-25T00:23:23;102026.69;;;8.36;80.72
49072;BME280;52656;52.610;10.236;2023-05-25T00:25:48;102020.53;;;8.34;80.83
49072;BME280;52656;52.610;10.236;2023-05-25T00:28:14;102024.97;;;8.32;80.99
49072;BME280;52656;52.610;10.236;2023-05-25T00:30:39;102019.72;;;8.29;80.09
49072;BME280;52656;52.610;10.236;2023-05-25T00:33:05;102019.75;;;8.23;80.57
49072;BME280;52656;52.610;10.236;2023-05-25T00:35:30;102013.63;;;8.20;80.88
49072;BME280;52656;52.610;10.236;2023-05-25T00:37:56;102025.91;;;8.21;80.32
49072;BME280;52656;52.610;10.236;2023-05-25T00:40:21;102027.69;;;8.17;80.38
49072;BME280;52656;52.610;10.236;2023-05-25T00:42:46;102030.38;;;8.12;79.58
49072;BME280;52656;52.610;10.236;2023-05-25T00:45:12;102025.16;;;8.06;79.67
49072;BME280;52656;52.610;10.236;2023-05-25T00:47:42;102022.63;;;7.97;79.95
49072;BME280;52656;52.610;10.236;2023-05-25T00:50:08;102026.16;;;7.96;80.18
49072;BME280;52656;52.610;10.236;2023-05-25T00:52:34;102020.88;;;7.95;79.83
49072;BME280;52656;52.610;10.236;2023-05-25T00:55:01;102015.63;;;7.90;79.75
49072;BME280;52656;52.610;10.236;2023-05-25T00:57:28;102013.94;;;7.86;79.88
49072;BME280;52656;52.610;10.236;2023-05-25T00:59:59;102012.19;;;7.83;79.54
49072;BME280;52656;52.610;10.236;2023-05-25T01:02:27;102020.13;;;7.82;79.58
49072;BME280;52656;52.610;10.236;2023-05-25T01:04:55;102018.41;;;7.72;79.57
49072;BME280;52656;52.610;10.236;2023-05-25T01:07:25;102019.34;;;7.68;79.66
49072;BME280;52656;52.610;10.236;2023-05-25T01:09:56;102015.84;;;7.64;80.17
49072;BME280;52656;52.610;10.236;2023-05-25T01:12:23;102021.09;;;7.67;79.54
49072;BME280;52656;52.610;10.236;2023-05-25T01:14:51;102015.81;;;7.67;79.22
49072;BME280;52656;52.610;10.236;2023-05-25T01:17:18;102015.84;;;7.62;79.48
49072;BME280;52656;52.610;10.236;2023-05-25T01:19:44;102022.03;;;7.57;78.95
49072;BME280;52656;52.610;10.236;2023-05-25T01:22:24;102025.59;;;7.51;79.90
49072;BME280;52656;52.610;10.236;2023-05-25T01:24:55;102025.63;;;7.50;80.04
49072;BME280;52656;52.610;10.236;2023-05-25T01:27:35;102024.78;;;7.42;80.10
49072;BME280;52656;52.610;10.236;2023-05-25T01:30:05;102024.78;;;7.42;79.85
49072;BME280;52656;52.610;10.236;2023-05-25T01:32:34;102026.53;;;7.39;80.21
49072;BME280;52656;52.610;10.236;2023-05-25T01:35:02;102017.75;;;7.39;80.38
49072;BME280;52656;52.610;10.236;2023-05-25T01:37:28;102026.50;;;7.44;79.84
49072;BME280;52656;52.610;10.236;2023-05-25T01:39:55;102032.66;;;7.46;80.62
49072;BME280;52656;52.610;10.236;2023-05-25T01:42:20;102021.19;;;7.53;81.62
49072;BME280;52656;52.610;10.236;2023-05-25T01:44:46;102031.72;;;7.56;82.70
49072;BME280;52656;52.610;10.236;2023-05-25T01:53:09;102013.72;;;8.09;81.28
49072;BME280;52656;52.610;10.236;2023-05-25T01:55:41;102010.97;;;8.20;80.82
49072;BME280;52656;52.610;10.236;2023-05-25T01:58:08;102015.28;;;8.33;80.97
49072;BME280;52656;52.610;10.236;2023-05-25T02:00:34;102021.34;;;8.43;80.82
49072;BME280;52656;52.610;10.236;2023-05-25T02:03:00;102015.06;;;8.53;80.28
49072;BME280;52656;52.610;10.236;2023-05-25T02:05:25;102020.25;;;8.63;77.96
49072;BME280;52656;52.610;10.236;2023-05-25T02:07:51;102023.69;;;8.67;79.43
49072;BME280;52656;52.610;10.236;2023-05-25T02:10:17;102015.69;;;8.75;79.37
49072;BME280;52656;52.610;10.236;2023-05-25T02:12:42;102018.25;;;8.82;78.98
49072;BME280;52656;52.610;10.236;2023-05-25T02:15:08;102019.13;;;8.83;78.70
49072;BME280;52656;52.610;10.236;2023-05-25T02:17:33;102010.28;;;8.87;79.22
49072;BME280;52656;52.610;10.236;2023-05-25T02:20:01;102013.69;;;8.93;79.90
49072;BME280;52656;52.610;10.236;2023-05-25T02:22:27;102009.28;;;8.96;80.79
49072;BME280;52656;52.610;10.236;2023-05-25T02:24:52;102021.50;;;9.04;80.36
49072;BME280;52656;52.610;10.236;2023-05-25T02:27:18;102017.03;;;9.08;80.00
49072;BME280;52656;52.610;10.236;2023-05-25T02:29:43;102019.63;;;9.12;80.21
49072;BME280;52656;52.610;10.236;2023-05-25T02:32:09;102015.16;;;9.16;80.46
49072;BME280;52656;52.610;10.236;2023-05-25T02:34:34;102016.03;;;9.18;79.68
49072;BME280;52656;52.610;10.236;2023-05-25T02:37:00;102016.84;;;9.23;79.22
49072;BME280;52656;52.610;10.236;2023-05-25T02:39:26;102015.06;;;9.24;79.59
49072;BME280;52656;52.610;10.236;2023-05-25T02:41:52;102015.28;;;9.08;80.95
49072;BME280;52656;52.610;10.236;2023-05-25T02:44:17;102025.69;;;9.22;80.19
49072;BME280;52656;52.610;10.236;2023-05-25T02:46:43;102030.06;;;9.23;80.31
49072;BME280;52656;52.610;10.236;2023-05-25T02:49:08;102030.94;;;9.24;79.32
49072;BME280;52656;52.610;10.236;2023-05-25T02:51:33;102034.41;;;9.26;79.04
49072;BME280;52656;52.610;10.236;2023-05-25T02:53:59;102044.09;;;9.28;78.97
49072;BME280;52656;52.610;10.236;2023-05-25T02:56:24;102042.31;;;9.29;79.39
49072;BME280;52656;52.610;10.236;2023-05-25T02:58:51;102037.09;;;9.24;79.13
49072;BME280;52656;52.610;10.236;2023-05-25T03:01:17;102031.78;;;9.27;79.44
49072;BME280;52656;52.610;10.236;2023-05-25T03:03:46;102041.47;;;9.27;79.08
49072;BME280;52656;52.610;10.236;2023-05-25T03:06:13;102048.50;;;9.26;79.46
49072;BME280;52656;52.610;10.236;2023-05-25T03:08:39;102046.88;;;9.17;80.18
49072;BME280;52656;52.610;10.236;2023-05-25T03:11:05;102044.28;;;9.14;80.36
49072;BME280;52656;52.610;10.236;2023-05-25T03:13:30;102039.84;;;9.18;79.97
49072;BME280;52656;52.610;10.236;2023-05-25T03:15:55;102044.22;;;9.19;80.54
49072;BME280;52656;52.610;10.236;2023-05-25T03:18:21;102044.19;;;9.22;79.80
49072;BME280;52656;52.610;10.236;2023-05-25T03:20:46;102044.19;;;9.22;79.87
49072;BME280;52656;52.610;10.236;2023-05-25T03:23:12;102039.84;;;9.18;79.99
49072;BME280;52656;52.610;10.236;2023-05-25T03:25:37;102046.00;;;9.17;80.06
49072;BME280;52656;52.610;10.236;2023-05-25T03:28:02;102043.34;;;9.18;80.42
49072;BME280;52656;52.610;10.236;2023-05-25T03:30:28;102046.78;;;9.24;79.76
49072;BME280;52656;52.610;10.236;2023-05-25T03:32:54;102050.28;;;9.27;79.91
49072;BME280;52656;52.610;10.236;2023-05-25T03:35:19;102046.75;;;9.25;79.95
49072;BME280;52656;52.610;10.236;2023-05-25T03:37:45;102059.09;;;9.26;79.98
49072;BME280;52656;52.610;10.236;2023-05-25T03:40:10;102067.06;;;9.22;80.34
49072;BME280;52656;52.610;10.236;2023-05-25T03:42:36;102063.69;;;9.13;80.59
49072;BME280;52656;52.610;10.236;2023-05-25T03:45:02;102072.53;;;9.09;80.98
49072;BME280;52656;52.610;10.236;2023-05-25T03:47:27;102066.38;;;9.07;80.63
49072;BME280;52656;52.610;10.236;2023-05-25T03:49:52;102065.44;;;9.11;80.74
49072;BME280;52656;52.610;10.236;2023-05-25T03:52:18;102064.50;;;9.17;80.88
49072;BME280;52656;52.610;10.236;2023-05-25T03:54:43;102068.03;;;9.17;80.38
49072;BME280;52656;52.610;10.236;2023-05-25T03:57:08;102068.91;;;9.18;80.59
49072;BME280;52656;52.610;10.236;2023-05-25T03:59:33;102070.59;;;9.24;80.50
49072;BME280;52656;52.610;10.236;2023-05-25T04:01:59;102068.72;;;9.30;81.14
49072;BME280;52656;52.610;10.236;2023-05-25T04:04:24;102082.72;;;9.38;80.76
49072;BME280;52656;52.610;10.236;2023-05-25T04:06:49;102079.16;;;9.42;80.46
49072;BME280;52656;52.610;10.236;2023-05-25T04:09:16;102079.16;;;9.42;79.92
49072;BME280;52656;52.610;10.236;2023-05-25T04:11:41;102084.47;;;9.39;80.07
49072;BME280;52656;52.610;10.236;2023-05-25T04:14:06;102086.22;;;9.42;79.94
49072;BME280;52656;52.610;10.236;2023-05-25T04:16:31;102088.84;;;9.42;80.16
49072;BME280;52656;52.610;10.236;2023-05-25T04:18:57;102086.13;;;9.50;79.75
49072;BME280;52656;52.610;10.236;2023-05-25T04:21:22;102092.22;;;9.53;79.67
49072;BME280;52656;52.610;10.236;2023-05-25T04:23:48;102093.94;;;9.57;79.46
49072;BME280;52656;52.610;10.236;2023-05-25T04:26:13;102088.63;;;9.59;79.93
49072;BME280;52656;52.610;10.236;2023-05-25T04:28:40;102093.88;;;9.63;79.33
49072;BME280;52656;52.610;10.236;2023-05-25T04:31:06;102099.25;;;9.56;79.63
49072;BME280;52656;52.610;10.236;2023-05-25T04:33:32;102093.09;;;9.55;79.70
49072;BME280;52656;52.610;10.236;2023-05-25T04:35:58;102100.16;;;9.53;79.74
49072;BME280;52656;52.610;10.236;2023-05-25T04:38:24;102106.16;;;9.66;79.46
49072;BME280;52656;52.610;10.236;2023-05-25T04:40:50;102102.59;;;9.68;79.40
49072;BME280;52656;52.610;10.236;2023-05-25T04:43:16;102101.72;;;9.66;79.36
49072;BME280;52656;52.610;10.236;2023-05-25T04:45:42;102097.38;;;9.64;79.70
49072;BME280;52656;52.610;10.236;2023-05-25T04:48:08;102100.91;;;9.64;79.80
49072;BME280;52656;52.610;10.236;2023-05-25T04:50:33;102106.97;;;9.71;80.04
49072;BME280;52656;52.610;10.236;2023-05-25T04:52:58;102101.53;;;9.82;79.32
49072;BME280;52656;52.610;10.236;2023-05-25T04:55:24;102102.31;;;9.88;78.93
49072;BME280;52656;52.610;10.236;2023-05-25T04:57:49;102104.94;;;9.91;78.77
49072;BME280;52656;52.610;10.236;2023-05-25T05:00:18;102105.63;;;10.04;79.59
49072;BME280;52656;52.610;10.236;2023-05-25T05:02:43;102098.69;;;9.96;80.17
49072;BME280;52656;52.610;10.236;2023-05-25T05:05:08;102094.88;;;10.13;78.48
49072;BME280;52656;52.610;10.236;2023-05-25T05:07:34;102103.63;;;10.18;77.90
49072;BME280;52656;52.610;10.236;2023-05-25T05:10:00;102094.94;;;10.10;78.39
49072;BME280;52656;52.610;10.236;2023-05-25T05:12:25;102103.63;;;10.17;78.42
49072;BME280;52656;52.610;10.236;2023-05-25T05:14:51;102113.25;;;10.24;77.88
49072;BME280;52656;52.610;10.236;2023-05-25T05:17:17;102110.47;;;10.32;77.62
49072;BME280;52656;52.610;10.236;2023-05-25T05:19:42;102109.53;;;10.34;77.81
49072;BME280;52656;52.610;10.236;2023-05-25T05:22:07;102110.41;;;10.35;77.17
49072;BME280;52656;52.610;10.236;2023-05-25T05:24:33;102118.16;;;10.47;77.71
49072;BME280;52656;52.610;10.236;2023-05-25T05:26:59;102119.81;;;10.54;77.96
49072;BME280;52656;52.610;10.236;2023-05-25T05:29:25;102117.28;;;10.47;77.61
49072;BME280;52656;52.610;10.236;2023-05-25T05:31:53;102127.09;;;10.41;77.53
49072;BME280;52656;52.610;10.236;2023-05-25T05:34:19;102127.91;;;10.43;77.56
49072;BME280;52656;52.610;10.236;2023-05-25T05:36:44;102135.81;;;10.47;77.58
49072;BME280;52656;52.610;10.236;2023-05-25T05:39:09;102136.69;;;10.47;77.63
49072;BME280;52656;52.610;10.236;2023-05-25T05:41:35;102142.78;;;10.54;77.70
49072;BME280;52656;52.610;10.236;2023-05-25T05:44:00;102150.69;;;10.55;78.13
49072;BME280;52656;52.610;10.236;2023-05-25T05:46:25;102153.22;;;10.63;77.91
49072;BME280;52656;52.610;10.236;2023-05-25T05:48:51;102157.53;;;10.67;77.23
49072;BME280;52656;52.610;10.236;2023-05-25T05:51:16;102156.66;;;10.66;77.39
49072;BME280;52656;52.610;10.236;2023-05-25T05:53:42;102156.63;;;10.69;77.11
49072;BME280;52656;52.610;10.236;2023-05-25T05:56:16;102159.94;;;10.81;76.91
49072;BME280;52656;52.610;10.236;2023-05-25T05:58:41;102169.75;;;10.76;76.90
49072;BME280;52656;52.610;10.236;2023-05-25T06:01:06;102169.88;;;10.69;77.50
49072;BME280;52656;52.610;10.236;2023-05-25T06:03:33;102175.13;;;10.71;76.94
49072;BME280;52656;52.610;10.236;2023-05-25T06:05:58;102174.41;;;10.61;77.44
49072;BME280;52656;52.610;10.236;2023-05-25T06:08:24;102177.69;;;10.76;77.64
49072;BME280;52656;52.610;10.236;2023-05-25T06:10:49;102173.88;;;10.92;77.37
49072;BME280;52656;52.610;10.236;2023-05-25T06:13:14;102174.44;;;11.08;77.00
49072;BME280;52656;52.610;10.236;2023-05-25T06:15:40;102174.06;;;11.29;75.84
49072;BME280;52656;52.610;10.236;2023-05-25T06:18:05;102165.44;;;11.61;74.98
49072;BME280;52656;52.610;10.236;2023-05-25T06:20:31;102165.84;;;11.83;74.31
49072;BME280;52656;52.610;10.236;2023-05-25T06:22:57;102173.22;;;11.70;73.93
49072;BME280;52656;52.610;10.236;2023-05-25T06:25:22;102164.50;;;12.04;72.85
49072;BME280;52656;52.610;10.236;2023-05-25T06:27:47;102167.84;;;12.12;72.53
49072;BME280;52656;52.610;10.236;2023-05-25T06:30:13;102165.28;;;12.08;72.25
49072;BME280;52656;52.610;10.236;2023-05-25T06:32:38;102169.66;;;12.10;71.46
49072;BME280;52656;52.610;10.236;2023-05-25T06:35:04;102169.06;;;12.36;71.79
49072;BME280;52656;52.610;10.236;2023-05-25T06:37:30;102173.47;;;12.00;72.86
49072;BME280;52656;52.610;10.236;2023-05-25T06:40:02;102178.34;;;12.18;73.23
49072;BME280;52656;52.610;10.236;2023-05-25T06:42:29;102181.31;;;12.42;72.47
49072;BME280;52656;52.610;10.236;2023-05-25T06:44:54;102181.38;;;12.39;72.41
49072;BME280;52656;52.610;10.236;2023-05-25T06:47:20;102178.00;;;12.69;71.29
49072;BME280;52656;52.610;10.236;2023-05-25T06:49:45;102176.06;;;12.76;71.01
49072;BME280;52656;52.610;10.236;2023-05-25T06:52:10;102176.41;;;12.96;70.44
49072;BME280;52656;52.610;10.236;2023-05-25T06:54:36;102182.66;;;12.94;70.09
49072;BME280;52656;52.610;10.236;2023-05-25T06:57:01;102181.53;;;13.03;70.13
49072;BME280;52656;52.610;10.236;2023-05-25T06:59:27;102181.16;;;13.16;69.69
49072;BME280;52656;52.610;10.236;2023-05-25T07:01:52;102181.94;;;13.21;68.99
49072;BME280;52656;52.610;10.236;2023-05-25T07:04:18;102188.47;;;13.41;68.44
49072;BME280;52656;52.610;10.236;2023-05-25T07:06:43;102189.22;;;13.46;68.20
49072;BME280;52656;52.610;10.236;2023-05-25T07:09:09;102195.59;;;13.39;67.52
49072;BME280;52656;52.610;10.236;2023-05-25T07:11:34;102194.84;;;13.35;68.54
49072;BME280;52656;52.610;10.236;2023-05-25T07:13:59;102194.31;;;13.54;67.87
49072;BME280;52656;52.610;10.236;2023-05-25T07:16:25;102192.00;;;13.41;68.02
49072;BME280;52656;52.610;10.236;2023-05-25T07:18:50;102195.59;;;13.39;68.23
49072;BME280;52656;52.610;10.236;2023-05-25T07:21:15;102189.81;;;13.56;67.61
49072;BME280;52656;52.610;10.236;2023-05-25T07:23:41;102181.22;;;13.77;67.52
49072;BME280;52656;52.610;10.236;2023-05-25T07:26:06;102193.72;;;14.03;66.32
49072;BME280;52656;52.610;10.236;2023-05-25T07:28:32;102189.47;;;13.97;66.47
49072;BME280;52656;52.610;10.236;2023-05-25T07:30:57;102191.47;;;13.91;65.62
49072;BME280;52656;52.610;10.236;2023-05-25T07:33:22;102193.47;;;13.83;66.66
49072;BME280;52656;52.610;10.236;2023-05-25T07:35:48;102198.97;;;14.06;66.38
49072;BME280;52656;52.610;10.236;2023-05-25T07:38:13;102190.91;;;14.08;66.27
49072;BME280;52656;52.610;10.236;2023-05-25T07:40:38;102204.56;;;14.27;65.82
49072;BME280;52656;52.610;10.236;2023-05-25T07:43:03;102200.00;;;14.57;64.72
49072;BME280;52656;52.610;10.236;2023-05-25T07:45:29;102206.63;;;14.71;64.30
49072;BME280;52656;52.610;10.236;2023-05-25T07:47:54;102207.09;;;14.30;64.67
49072;BME280;52656;52.610;10.236;2023-05-25T07:50:20;102208.63;;;14.10;66.18
49072;BME280;52656;52.610;10.236;2023-05-25T07:52:46;102210.94;;;14.49;64.99
49072;BME280;52656;52.610;10.236;2023-05-25T07:55:12;102207.66;;;14.67;64.19
49072;BME280;52656;52.610;10.236;2023-05-25T07:57:37;102205.72;;;14.71;64.19
49072;BME280;52656;52.610;10.236;2023-05-25T08:00:03;102207.06;;;14.31;65.24
49072;BME280;52656;52.610;10.236;2023-05-25T08:02:35;102209.84;;;14.55;64.63
49072;BME280;52656;52.610;10.236;2023-05-25T08:05:00;102207.03;;;14.59;63.68
49072;BME280;52656;52.610;10.236;2023-05-25T08:07:31;102205.75;;;14.97;63.04
49072;BME280;52656;52.610;10.236;2023-05-25T08:09:56;102209.28;;;14.98;62.51
49072;BME280;52656;52.610;10.236;2023-05-25T08:12:21;102195.38;;;14.90;62.05
49072;BME280;52656;52.610;10.236;2023-05-25T08:14:46;102200.09;;;15.07;61.94
49072;BME280;52656;52.610;10.236;2023-05-25T08:17:12;102196.56;;;15.06;62.42
49072;BME280;52656;52.610;10.236;2023-05-25T08:19:37;102204.34;;;14.87;62.02
49072;BME280;52656;52.610;10.236;2023-05-25T08:22:02;102197.56;;;15.04;61.45
49072;BME280;52656;52.610;10.236;2023-05-25T08:24:28;102197.31;;;15.10;61.60
49072;BME280;52656;52.610;10.236;2023-05-25T08:26:53;102204.50;;;15.08;61.52
49072;BME280;52656;52.610;10.236;2023-05-25T08:29:18;102207.94;;;15.11;61.61
49072;BME280;52656;52.610;10.236;2023-05-25T08:31:44;102206.69;;;14.96;61.27
49072;BME280;52656;52.610;10.236;2023-05-25T08:34:13;102206.25;;;15.09;61.40
49072;BME280;52656;52.610;10.236;2023-05-25T08:36:39;102210.50;;;15.14;60.76
49072;BME280;52656;52.610;10.236;2023-05-25T08:39:04;102210.56;;;15.13;60.58
49072;BME280;52656;52.610;10.236;2023-05-25T08:41:34;102216.25;;;15.02;60.88
49072;BME280;52656;52.610;10.236;2023-05-25T08:44:00;102210.91;;;15.04;61.58
49072;BME280;52656;52.610;10.236;2023-05-25T08:46:30;102213.16;;;15.14;61.05
49072;BME280;52656;52.610;10.236;2023-05-25T08:49:12;102216.59;;;15.43;60.72
49072;BME280;52656;52.610;10.236;2023-05-25T08:51:41;102219.69;;;15.56;60.11
49072;BME280;52656;52.610;10.236;2023-05-25T08:54:09;102222.44;;;15.78;59.74
49072;BME280;52656;52.610;10.236;2023-05-25T08:56:40;102214.53;;;15.74;59.36
49072;BME280;52656;52.610;10.236;2023-05-25T08:59:30;102222.69;;;15.70;58.92
49072;BME280;52656;52.610;10.236;2023-05-25T09:04:35;102223.81;;;16.11;58.31
49072;BME280;52656;52.610;10.236;2023-05-25T09:07:02;102231.53;;;16.19;57.58
49072;BME280;52656;52.610;10.236;2023-05-25T09:09:28;102229.06;;;16.36;56.96
49072;BME280;52656;52.610;10.236;2023-05-25T09:11:54;102232.72;;;16.56;55.64
49072;BME280;52656;52.610;10.236;2023-05-25T09:14:20;102220.75;;;17.07;54.58
49072;BME280;52656;52.610;10.236;2023-05-25T09:16:46;102216.00;;;17.34;53.92
49072;BME280;52656;52.610;10.236;2023-05-25T09:19:11;102213.56;;;17.87;51.60
49072;BME280;52656;52.610;10.236;2023-05-25T09:21:36;102212.72;;;18.42;50.91
49072;BME280;52656;52.610;10.236;2023-05-25T09:24:01;102216.72;;;18.52;50.56
49072;BME280;52656;52.610;10.236;2023-05-25T09:26:27;102222.59;;;18.41;50.85
49072;BME280;52656;52.610;10.236;2023-05-25T09:28:52;102219.34;;;18.16;49.54
49072;BME280;52656;52.610;10.236;2023-05-25T09:31:18;102221.47;;;18.09;51.71
49072;BME280;52656;52.610;10.236;2023-05-25T09:33:43;102224.28;;;17.68;50.86
49072;BME280;52656;52.610;10.236;2023-05-25T09:36:11;102225.88;;;17.52;52.79
49072;BME280;52656;52.610;10.236;2023-05-25T09:38:39;102230.41;;;17.31;52.83
49072;BME280;52656;52.610;10.236;2023-05-25T09:41:04;102226.53;;;16.97;52.77
49072;BME280;52656;52.610;10.236;2023-05-25T09:43:31;102231.81;;;16.99;52.83
49072;BME280;52656;52.610;10.236;2023-05-25T09:45:56;102233.88;;;16.92;52.45
49072;BME280;52656;52.610;10.236;2023-05-25T09:48:22;102235.09;;;17.06;52.29
49072;BME280;52656;52.610;10.236;2023-05-25T09:50:48;102233.28;;;16.86;53.16
49072;BME280;52656;52.610;10.236;2023-05-25T09:53:13;102235.13;;;16.62;53.96
49072;BME280;52656;52.610;10.236;2023-05-25T09:55:38;102252.94;;;16.63;54.34
49072;BME280;52656;52.610;10.236;2023-05-25T09:58:04;102245.28;;;16.75;53.96
49072;BME280;52656;52.610;10.236;2023-05-25T10:00:30;102245.44;;;16.72;53.97
49072;BME280;52656;52.610;10.236;2023-05-25T10:02:55;102255.59;;;16.85;53.43
49072;BME280;52656;52.610;10.236;2023-05-25T10:05:20;102244.78;;;17.29;53.09
49072;BME280;52656;52.610;10.236;2023-05-25T10:07:45;102257.44;;;17.25;51.93
49072;BME280;52656;52.610;10.236;2023-05-25T10:10:14;102249.63;;;17.80;51.09
49072;BME280;52656;52.610;10.236;2023-05-25T10:12:42;102251.66;;;17.94;50.53
49072;BME280;52656;52.610;10.236;2023-05-25T10:15:10;102253.69;;;17.89;50.74
49072;BME280;52656;52.610;10.236;2023-05-25T10:17:39;102257.09;;;18.30;49.99
49072;BME280;52656;52.610;10.236;2023-05-25T10:20:07;102262.59;;;18.65;49.06
49072;BME280;52656;52.610;10.236;2023-05-25T10:25:16;102266.03;;;18.31;48.82
49072;BME280;52656;52.610;10.236;2023-05-25T10:27:58;102265.97;;;18.32;48.10
49072;BME280;52656;52.610;10.236;2023-05-25T10:30:25;102257.97;;;17.93;48.02
49072;BME280;52656;52.610;10.236;2023-05-25T10:32:51;102268.56;;;17.96;49.08
49072;BME280;52656;52.610;10.236;2023-05-25T10:35:18;102262.34;;;18.14;49.13
49072;BME280;52656;52.610;10.236;2023-05-25T10:37:43;102264.00;;;18.36;48.81
49072;BME280;52656;52.610;10.236;2023-05-25T10:40:09;102257.38;;;18.62;48.19
49072;BME280;52656;52.610;10.236;2023-05-25T10:42:35;102260.31;;;18.74;47.36
49072;BME280;52656;52.610;10.236;2023-05-25T10:45:05;102256.31;;;18.83;47.10
49072;BME280;52656;52.610;10.236;2023-05-25T10:47:31;102256.38;;;19.16;46.42
49072;BME280;52656;52.610;10.236;2023-05-25T10:49:58;102255.66;;;19.30;46.37
49072;BME280;52656;52.610;10.236;2023-05-25T10:52:27;102262.59;;;19.36;46.18
49072;BME280;52656;52.610;10.236;2023-05-25T10:54:56;102249.84;;;19.22;46.57
49072;BME280;52656;52.610;10.236;2023-05-25T10:57:23;102254.78;;;19.31;46.27
49072;BME280;52656;52.610;10.236;2023-05-25T10:59:50;102256.00;;;19.24;46.49
49072;BME280;52656;52.610;10.236;2023-05-25T11:02:18;102247.47;;;19.33;46.68
49072;BME280;52656;52.610;10.236;2023-05-25T11:04:47;102247.13;;;19.57;46.35
49072;BME280;52656;52.610;10.236;2023-05-25T11:07:14;102236.94;;;19.28;45.36
49072;BME280;52656;52.610;10.236;2023-05-25T11:09:42;102242.66;;;19.05;45.68
49072;BME280;52656;52.610;10.236;2023-05-25T11:12:17;102232.88;;;19.21;45.81
49072;BME280;52656;52.610;10.236;2023-05-25T11:14:43;102244.66;;;19.69;45.32
49072;BME280;52656;52.610;10.236;2023-05-25T11:17:12;102237.81;;;19.79;45.44
49072;BME280;52656;52.610;10.236;2023-05-25T11:19:51;102237.28;;;19.40;46.50
49072;BME280;52656;52.610;10.236;2023-05-25T11:22:31;102231.13;;;19.03;46.47
49072;BME280;52656;52.610;10.236;2023-05-25T11:24:58;102234.16;;;18.61;46.57
49072;BME280;52656;52.610;10.236;2023-05-25T11:27:26;102230.59;;;18.24;47.02
49072;BME280;52656;52.610;10.236;2023-05-25T11:29:52;102223.47;;;18.78;46.64
49072;BME280;52656;52.610;10.236;2023-05-25T11:32:19;102223.06;;;18.68;46.16
49072;BME280;52656;52.610;10.236;2023-05-25T11:34:46;102219.41;;;19.39;45.92
49072;BME280;52656;52.610;10.236;2023-05-25T11:37:15;102213.59;;;20.13;45.33
49072;BME280;52656;52.610;10.236;2023-05-25T11:39:41;102208.69;;;20.81;43.80
49072;BME280;52656;52.610;10.236;2023-05-25T11:42:11;102204.22;;;21.26;42.16
49072;BME280;52656;52.610;10.236;2023-05-25T11:44:36;102206.31;;;21.64;41.41
49072;BME280;52656;52.610;10.236;2023-05-25T11:47:07;102200.63;;;21.97;40.72
49072;BME280;52656;52.610;10.236;2023-05-25T11:49:34;102198.94;;;22.50;40.32
49072;BME280;52656;52.610;10.236;2023-05-25T11:52:04;102201.41;;;22.40;40.21
49072;BME280;52656;52.610;10.236;2023-05-25T11:54:33;102187.72;;;21.88;39.68
49072;BME280;52656;52.610;10.236;2023-05-25T11:56:59;102193.16;;;22.15;40.58
49072;BME280;52656;52.610;10.236;2023-05-25T11:59:25;102192.91;;;22.05;39.88
49072;BME280;52656;52.610;10.236;2023-05-25T12:01:59;102199.34;;;22.02;40.08
49072;BME280;52656;52.610;10.236;2023-05-25T12:04:25;102183.38;;;22.41;39.29
49072;BME280;52656;52.610;10.236;2023-05-25T12:06:51;102182.41;;;22.00;40.00
49072;BME280;52656;52.610;10.236;2023-05-25T12:09:20;102186.13;;;22.66;38.85
49072;BME280;52656;52.610;10.236;2023-05-25T12:11:46;102186.38;;;22.89;38.65
49072;BME280;52656;52.610;10.236;2023-05-25T12:14:12;102182.97;;;22.99;38.32
49072;BME280;52656;52.610;10.236;2023-05-25T12:16:37;102183.84;;;23.38;37.91
49072;BME280;52656;52.610;10.236;2023-05-25T12:19:05;102176.63;;;23.13;38.23
49072;BME280;52656;52.610;10.236;2023-05-25T12:21:32;102173.63;;;22.78;39.03
49072;BME280;52656;52.610;10.236;2023-05-25T12:23:58;102175.63;;;22.62;39.57
49072;BME280;52656;52.610;10.236;2023-05-25T12:26:24;102165.44;;;22.92;38.77
49072;BME280;52656;52.610;10.236;2023-05-25T12:29:00;102170.50;;;22.97;37.32
49072;BME280;52656;52.610;10.236;2023-05-25T12:31:28;102171.19;;;23.39;37.31
49072;BME280;52656;52.610;10.236;2023-05-25T12:34:09;102157.31;;;23.56;37.27
49072;BME280;52656;52.610;10.236;2023-05-25T12:36:49;102154.84;;;22.76;36.48
49072;BME280;52656;52.610;10.236;2023-05-25T12:41:51;102157.78;;;23.24;37.37
49072;BME280;52656;52.610;10.236;2023-05-25T12:46:51;102149.78;;;22.85;36.40
49072;BME280;52656;52.610;10.236;2023-05-25T12:49:23;102149.78;;;22.85;37.46
49072;BME280;52656;52.610;10.236;2023-05-25T12:51:49;102152.75;;;22.67;36.44
49072;BME280;52656;52.610;10.236;2023-05-25T12:54:14;102150.66;;;22.45;36.43
49072;BME280;52656;52.610;10.236;2023-05-25T12:56:55;102150.28;;;22.10;37.46